createdAt,value
2022-09-20T00:04:17.594Z,2.8
2022-09-20T00:10:07.826Z,2.3
2022-09-20T00:16:01.284Z,2.4
2022-09-20T00:21:53.692Z,2.4
2022-09-20T00:27:43.957Z,2.7
2022-09-20T00:33:33.369Z,2.8
2022-09-20T00:39:23.608Z,2.6
2022-09-20T00:45:17.292Z,2.6
2022-09-20T00:51:09.405Z,2.8
2022-09-20T00:57:00.372Z,2.7
2022-09-20T01:02:54.160Z,3
2022-09-20T01:08:44.848Z,2.9
2022-09-20T01:14:37.129Z,2.7
2022-09-20T01:20:31.947Z,3.1
2022-09-20T01:26:23.391Z,3
2022-09-20T01:32:17.280Z,3.3
2022-09-20T01:38:08.844Z,2.9
2022-09-20T01:44:00.605Z,2.8
2022-09-20T01:49:52.397Z,2.8
2022-09-20T01:55:46.072Z,3.3
2022-09-20T02:01:37.599Z,4.1
2022-09-20T02:07:30.672Z,3.5
2022-09-20T02:13:22.686Z,3.5
2022-09-20T02:19:17.858Z,3.8
2022-09-20T02:25:09.988Z,2.9
2022-09-20T02:31:00.852Z,3.1
2022-09-20T02:36:51.721Z,3.4
2022-09-20T02:42:43.915Z,3.9
2022-09-20T02:48:36.153Z,3.8
2022-09-20T02:54:28.180Z,3.9
2022-09-20T03:00:19.904Z,4.6
2022-09-20T03:06:12.933Z,4.5
2022-09-20T03:12:04.381Z,4.4
2022-09-20T03:17:56.686Z,4.3
2022-09-20T03:23:49.782Z,4.4
2022-09-20T03:29:42.205Z,4.2
2022-09-20T03:35:34.077Z,5.8
2022-09-20T03:41:25.976Z,4.1
2022-09-20T09:01:02.708Z,3.4
2022-09-20T09:07:01.199Z,3.3
2022-09-20T09:13:03.390Z,2.8
2022-09-20T09:19:20.349Z,2.6
2022-09-20T09:25:13.478Z,3.2
2022-09-20T09:31:15.724Z,3.1
2022-09-20T09:37:28.709Z,2.6
2022-09-20T09:43:27.389Z,3.1
2022-09-20T09:49:32.894Z,2.3
2022-09-20T09:55:39.799Z,2.8
2022-09-20T10:01:43.210Z,1.8
2022-09-20T10:07:36.649Z,1.8
2022-09-20T10:13:40.835Z,2.1
2022-09-20T10:19:55.739Z,2
2022-09-20T10:32:26.011Z,2.1
2022-09-20T10:38:36.990Z,2.4
2022-09-20T10:44:29.159Z,1.7
2022-09-20T11:02:45.813Z,2.2
2022-09-20T11:15:11.643Z,2
2022-09-20T11:21:02.480Z,2.2
2022-09-20T11:27:00.052Z,1.9
2022-09-20T11:33:06.622Z,2.6
2022-09-20T11:45:42.807Z,5.6
2022-09-20T11:51:47.941Z,4
2022-09-20T11:57:45.822Z,2
2022-09-20T12:03:42.951Z,3.7
2022-09-20T12:09:35.530Z,2.6
2022-09-20T12:15:37.680Z,2.3
2022-09-20T12:21:30.854Z,2.1
2022-09-20T12:27:24.192Z,2.3
2022-09-20T12:33:20.136Z,1.7
2022-09-20T12:40:19.104Z,1.4
2022-09-20T12:46:17.092Z,1.6
2022-09-20T12:52:06.860Z,2.1
2022-09-20T12:57:57.240Z,2.2
2022-09-20T13:03:47.709Z,2
2022-09-20T13:09:38.986Z,1.6
2022-09-20T13:15:30.378Z,1.8
2022-09-20T13:21:21.084Z,2.4
2022-09-20T13:27:11.760Z,1.3
2022-09-20T13:33:02.293Z,1.8
2022-09-20T13:38:52.995Z,1.4
2022-09-20T13:44:44.078Z,1.5
2022-09-20T13:50:34.671Z,1.7
2022-09-20T13:56:25.192Z,2
2022-09-20T14:02:16.666Z,1.8
2022-09-20T14:08:07.656Z,1.8
2022-09-20T14:13:58.028Z,2.3
2022-09-20T14:19:48.294Z,1.6
2022-09-20T14:25:38.806Z,1.6
2022-09-20T14:31:30.220Z,2
2022-09-20T14:37:20.889Z,1.5
2022-09-20T14:43:12.582Z,1.8
2022-09-20T14:49:02.546Z,1.7
2022-09-20T14:54:53.985Z,1.5
2022-09-20T15:00:45.875Z,1.4
2022-09-20T15:06:37.058Z,1.4
2022-09-20T15:12:27.914Z,1.2
2022-09-20T15:18:17.935Z,1.2
2022-09-20T15:24:08.755Z,1.4
2022-09-20T15:30:05.782Z,1.1
2022-09-20T15:35:54.431Z,1.4
2022-09-20T15:41:43.394Z,1
2022-09-20T15:47:35.115Z,1.1
2022-09-20T15:53:25.866Z,1.1
2022-09-20T15:59:18.211Z,1
2022-09-20T16:05:07.250Z,1.4
2022-09-20T16:10:56.641Z,1.1
2022-09-20T16:16:47.672Z,1.1
2022-09-20T16:22:37.060Z,1
2022-09-20T16:28:26.569Z,1.7
2022-09-20T16:34:15.522Z,1.4
2022-09-20T16:40:07.501Z,1.8
2022-09-20T16:45:58.855Z,1.5
2022-09-20T16:51:49.856Z,1.4
2022-09-20T16:57:40.554Z,1.7
2022-09-20T17:03:30.722Z,2
2022-09-20T17:09:22.615Z,1.4
2022-09-20T17:15:16.786Z,1.8
2022-09-20T17:21:12.011Z,2.4
2022-09-20T17:27:02.421Z,2.9
2022-09-20T17:32:53.594Z,2.8
2022-09-20T17:38:44.147Z,2.9
2022-09-20T17:44:34.352Z,2.5
2022-09-20T17:50:26.985Z,3
2022-09-20T17:56:15.991Z,3.6
2022-09-20T18:02:06.548Z,7.2
2022-09-20T18:07:57.731Z,18.3
2022-09-20T18:13:49.671Z,11.7
2022-09-20T18:19:39.784Z,5.8
2022-09-20T18:25:30.416Z,3.4
2022-09-20T18:31:21.350Z,3.8
2022-09-20T18:37:18.249Z,11.9
2022-09-20T18:43:11.847Z,11.9
2022-09-20T18:49:21.547Z,8
2022-09-20T18:56:03.969Z,8.8
2022-09-20T19:02:00.355Z,8.5
2022-09-20T19:07:53.578Z,8.2
2022-09-20T19:13:52.803Z,8.4
2022-09-20T19:19:54.631Z,7.4
2022-09-20T19:25:50.569Z,4.9
2022-09-20T19:31:49.463Z,5.1
2022-09-20T19:37:44.574Z,5.6
2022-09-20T19:43:36.462Z,5.7
2022-09-20T19:49:27.597Z,7.1
2022-09-20T19:55:21.046Z,4.3
2022-09-20T20:08:49.381Z,3.5
2022-09-20T20:15:45.712Z,3.4
2022-09-20T20:21:50.415Z,3.1
2022-09-20T20:35:22.743Z,4
2022-09-20T21:02:19.065Z,4.4
2022-09-20T21:09:07.102Z,3.8
2022-09-20T21:15:21.807Z,4
2022-09-20T21:21:29.229Z,3.8
2022-09-20T21:27:36.905Z,3.8
2022-09-20T21:34:16.842Z,3.6
2022-09-20T21:40:51.270Z,4.4
2022-09-20T21:48:25.908Z,4.7
2022-09-20T22:02:21.550Z,4.7
2022-09-20T22:16:52.354Z,4.3
